sensor_id;sensor_type;location;lat;lon;timestamp;pressure;altitude;pressure_sealevel;temperature;humidity
7768;BME280;3928;42.626;23.382;2023-02-22T00:01:09;94158.06;;;12.40;38.12
7768;BME280;3928;42.626;23.382;2023-02-22T00:03:47;94159.13;;;12.33;38.17
7768;BME280;3928;42.626;23.382;2023-02-22T00:06:16;94155.41;;;12.10;38.65
7768;BME280;3928;42.626;23.382;2023-02-22T00:08:46;94141.34;;;11.89;39.15
7768;BME280;3928;42.626;23.382;2023-02-22T00:11:13;94165.03;;;12.02;38.85
7768;BME280;3928;42.626;23.382;2023-02-22T00:13:40;94156.22;;;12.12;38.57
7768;BME280;3928;42.626;23.382;2023-02-22T00:16:13;94077.56;;;11.68;38.88
7768;BME280;3928;42.626;23.382;2023-02-22T00:18:40;94129.19;;;11.96;38.76
7768;BME280;3928;42.626;23.382;2023-02-22T00:21:09;94156.22;;;12.12;38.95
7768;BME280;3928;42.626;23.382;2023-02-22T00:23:39;94162.28;;;12.10;38.98
7768;BME280;3928;42.626;23.382;2023-02-22T00:26:09;94104.72;;;11.80;39.10
7768;BME280;3928;42.626;23.382;2023-02-22T00:28:36;94152.13;;;12.04;39.21
7768;BME280;3928;42.626;23.382;2023-02-22T00:31:03;94145.34;;;12.01;38.57
7768;BME280;3928;42.626;23.382;2023-02-22T00:33:31;94154.78;;;12.00;39.55
7768;BME280;3928;42.626;23.382;2023-02-22T00:35:58;94144.63;;;11.96;40.12
7768;BME280;3928;42.626;23.382;2023-02-22T00:38:25;94144.13;;;11.80;40.26
7768;BME280;3928;42.626;23.382;2023-02-22T00:40:52;94144.19;;;11.77;40.34
7768;BME280;3928;42.626;23.382;2023-02-22T00:43:21;94145.88;;;11.78;39.93
7768;BME280;3928;42.626;23.382;2023-02-22T00:45:49;94097.69;;;11.51;40.02
7768;BME280;3928;42.626;23.382;2023-02-22T00:48:16;94123.91;;;11.65;40.63
7768;BME280;3928;42.626;23.382;2023-02-22T00:50:43;94123.00;;;11.67;40.55
7768;BME280;3928;42.626;23.382;2023-02-22T00:53:10;94107.81;;;11.57;40.37
7768;BME280;3928;42.626;23.382;2023-02-22T00:55:37;94117.84;;;11.67;40.62
7768;BME280;3928;42.626;23.382;2023-02-22T00:58:05;94131.38;;;11.76;40.70
7768;BME280;3928;42.626;23.382;2023-02-22T01:00:35;94125.97;;;11.51;40.84
7768;BME280;3928;42.626;23.382;2023-02-22T01:03:02;94108.94;;;11.45;40.10
7768;BME280;3928;42.626;23.382;2023-02-22T01:05:30;94123.00;;;11.67;39.45
7768;BME280;3928;42.626;23.382;2023-02-22T01:07:59;94075.66;;;11.40;40.51
7768;BME280;3928;42.626;23.382;2023-02-22T01:10:28;94089.44;;;11.38;39.95
7768;BME280;3928;42.626;23.382;2023-02-22T01:12:56;94105.97;;;11.63;39.50
7768;BME280;3928;42.626;23.382;2023-02-22T01:15:25;94088.41;;;11.45;40.34
7768;BME280;3928;42.626;23.382;2023-02-22T01:17:54;94101.75;;;11.59;39.61
7768;BME280;3928;42.626;23.382;2023-02-22T01:20:23;94102.38;;;11.69;39.62
7768;BME280;3928;42.626;23.382;2023-02-22T01:22:52;94081.78;;;11.70;39.50
7768;BME280;3928;42.626;23.382;2023-02-22T01:25:20;94089.97;;;11.88;39.47
7768;BME280;3928;42.626;23.382;2023-02-22T01:27:48;94109.34;;;12.01;39.34
7768;BME280;3928;42.626;23.382;2023-02-22T01:30:19;94104.38;;;11.93;38.91
7768;BME280;3928;42.626;23.382;2023-02-22T01:32:46;94004.59;;;11.39;39.19
7768;BME280;3928;42.626;23.382;2023-02-22T01:35:17;94084.81;;;11.88;39.09
7768;BME280;3928;42.626;23.382;2023-02-22T01:37:44;94094.03;;;11.96;38.59
7768;BME280;3928;42.626;23.382;2023-02-22T01:40:16;94104.16;;;12.03;37.91
7768;BME280;3928;42.626;23.382;2023-02-22T01:42:47;94081.13;;;11.98;37.96
7768;BME280;3928;42.626;23.382;2023-02-22T01:45:42;94106.47;;;12.13;38.05
7768;BME280;3928;42.626;23.382;2023-02-22T01:48:17;94102.25;;;12.11;38.18
7768;BME280;3928;42.626;23.382;2023-02-22T01:50:49;94087.78;;;12.05;37.96
7768;BME280;3928;42.626;23.382;2023-02-22T01:53:20;94095.31;;;12.13;37.99
7768;BME280;3928;42.626;23.382;2023-02-22T01:55:49;94081.75;;;12.06;37.28
7768;BME280;3928;42.626;23.382;2023-02-22T01:58:18;94061.47;;;11.95;37.71
7768;BME280;3928;42.626;23.382;2023-02-22T02:00:46;94096.88;;;12.18;37.21
7768;BME280;3928;42.626;23.382;2023-02-22T02:03:15;93860.81;;;10.70;37.46
7768;BME280;3928;42.626;23.382;2023-02-22T02:05:44;94072.44;;;12.02;37.91
7768;BME280;3928;42.626;23.382;2023-02-22T02:08:19;94054.72;;;11.91;38.05
7768;BME280;3928;42.626;23.382;2023-02-22T02:10:47;94096.75;;;11.90;38.55
7768;BME280;3928;42.626;23.382;2023-02-22T02:13:15;94034.56;;;11.40;39.49
7768;BME280;3928;42.626;23.382;2023-02-22T02:15:42;94103.97;;;11.75;39.49
7768;BME280;3928;42.626;23.382;2023-02-22T02:18:11;94069.19;;;11.60;39.16
7768;BME280;3928;42.626;23.382;2023-02-22T02:20:45;94078.31;;;11.73;39.56
7768;BME280;3928;42.626;23.382;2023-02-22T02:26:33;94101.75;;;11.95;38.56
7768;BME280;3928;42.626;23.382;2023-02-22T02:32:20;94102.47;;;12.02;38.36
7768;BME280;3928;42.626;23.382;2023-02-22T02:34:49;94119.28;;;12.15;38.50
7768;BME280;3928;42.626;23.382;2023-02-22T02:37:20;94118.44;;;12.14;38.41
7768;BME280;3928;42.626;23.382;2023-02-22T02:39:57;94100.03;;;11.97;38.51
7768;BME280;3928;42.626;23.382;2023-02-22T02:42:28;94108.03;;;11.85;38.69
7768;BME280;3928;42.626;23.382;2023-02-22T02:45:01;94128.50;;;11.89;38.67
7768;BME280;3928;42.626;23.382;2023-02-22T02:47:37;94122.34;;;11.95;38.57
7768;BME280;3928;42.626;23.382;2023-02-22T02:50:09;94100.25;;;11.88;38.69
7768;BME280;3928;42.626;23.382;2023-02-22T02:52:39;94119.06;;;11.90;39.07
7768;BME280;3928;42.626;23.382;2023-02-22T02:55:07;94068.72;;;11.44;39.28
7768;BME280;3928;42.626;23.382;2023-02-22T02:57:36;94130.53;;;11.75;39.82
7768;BME280;3928;42.626;23.382;2023-02-22T03:00:04;94112.88;;;11.61;39.64
7768;BME280;3928;42.626;23.382;2023-02-22T03:02:56;94117.22;;;11.58;40.32
7768;BME280;3928;42.626;23.382;2023-02-22T03:05:42;94104.00;;;11.36;40.64
7768;BME280;3928;42.626;23.382;2023-02-22T03:08:17;94131.09;;;11.51;41.09
7768;BME280;3928;42.626;23.382;2023-02-22T03:10:54;94131.88;;;11.54;40.98
7768;BME280;3928;42.626;23.382;2023-02-22T03:13:32;94135.31;;;11.53;41.29
7768;BME280;3928;42.626;23.382;2023-02-22T03:16:13;94116.22;;;11.28;41.69
7768;BME280;3928;42.626;23.382;2023-02-22T03:18:49;94138.28;;;11.35;41.07
7768;BME280;3928;42.626;23.382;2023-02-22T03:21:23;94131.59;;;11.29;41.23
7768;BME280;3928;42.626;23.382;2023-02-22T03:23:59;94124.84;;;11.25;41.04
7768;BME280;3928;42.626;23.382;2023-02-22T03:26:31;94118.97;;;11.19;41.35
7768;BME280;3928;42.626;23.382;2023-02-22T03:29:00;94124.03;;;11.22;41.97
7768;BME280;3928;42.626;23.382;2023-02-22T03:31:33;94123.13;;;11.24;41.58
7768;BME280;3928;42.626;23.382;2023-02-22T03:34:07;94128.25;;;11.24;42.12
7768;BME280;3928;42.626;23.382;2023-02-22T03:36:41;94122.22;;;11.27;41.39
7768;BME280;3928;42.626;23.382;2023-02-22T03:39:13;94127.22;;;11.33;40.42
7768;BME280;3928;42.626;23.382;2023-02-22T03:41:43;94103.44;;;11.23;40.76
7768;BME280;3928;42.626;23.382;2023-02-22T03:44:15;94100.19;;;11.17;40.34
7768;BME280;3928;42.626;23.382;2023-02-22T03:46:45;94035.38;;;10.67;40.72
7768;BME280;3928;42.626;23.382;2023-02-22T03:49:19;94133.22;;;11.32;41.00
7768;BME280;3928;42.626;23.382;2023-02-22T03:51:49;94133.78;;;11.07;40.96
7768;BME280;3928;42.626;23.382;2023-02-22T03:54:16;94124.31;;;10.69;41.48
7768;BME280;3928;42.626;23.382;2023-02-22T03:56:48;94133.09;;;10.58;42.31
7768;BME280;3928;42.626;23.382;2023-02-22T03:59:15;94131.72;;;10.38;42.38
7768;BME280;3928;42.626;23.382;2023-02-22T04:01:42;94141.03;;;10.45;42.17
7768;BME280;3928;42.626;23.382;2023-02-22T04:04:09;94128.94;;;10.50;41.53
7768;BME280;3928;42.626;23.382;2023-02-22T04:06:37;94123.94;;;10.44;41.69
7768;BME280;3928;42.626;23.382;2023-02-22T04:09:04;94109.84;;;10.19;42.18
7768;BME280;3928;42.626;23.382;2023-02-22T04:11:33;94123.44;;;10.24;42.91
7768;BME280;3928;42.626;23.382;2023-02-22T04:13:59;94118.06;;;10.38;42.26
7768;BME280;3928;42.626;23.382;2023-02-22T04:16:27;94111.97;;;10.43;41.86
7768;BME280;3928;42.626;23.382;2023-02-22T04:18:53;94110.53;;;10.30;42.58
7768;BME280;3928;42.626;23.382;2023-02-22T04:21:20;94102.13;;;10.22;42.46
7768;BME280;3928;42.626;23.382;2023-02-22T04:23:48;94130.63;;;10.51;42.13
7768;BME280;3928;42.626;23.382;2023-02-22T04:26:16;94131.16;;;10.69;41.67
7768;BME280;3928;42.626;23.382;2023-02-22T04:28:43;94128.59;;;10.69;41.61
7768;BME280;3928;42.626;23.382;2023-02-22T04:31:10;94119.66;;;10.45;42.20
7768;BME280;3928;42.626;23.382;2023-02-22T04:33:36;94069.91;;;10.06;42.08
7768;BME280;3928;42.626;23.382;2023-02-22T04:36:04;94138.19;;;10.11;43.31
7768;BME280;3928;42.626;23.382;2023-02-22T04:38:30;94114.47;;;9.99;43.83
7768;BME280;3928;42.626;23.382;2023-02-22T04:40:59;94076.78;;;9.54;44.10
7768;BME280;3928;42.626;23.382;2023-02-22T04:43:25;94129.91;;;9.97;43.83
7768;BME280;3928;42.626;23.382;2023-02-22T04:45:52;94134.16;;;9.98;43.02
7768;BME280;3928;42.626;23.382;2023-02-22T04:48:19;94126.47;;;9.96;43.58
7768;BME280;3928;42.626;23.382;2023-02-22T04:50:46;94137.63;;;9.95;44.22
7768;BME280;3928;42.626;23.382;2023-02-22T04:53:13;94140.88;;;10.04;43.61
7768;BME280;3928;42.626;23.382;2023-02-22T04:55:39;94094.91;;;9.94;43.89
7768;BME280;3928;42.626;23.382;2023-02-22T04:58:08;94136.31;;;10.22;43.67
7768;BME280;3928;42.626;23.382;2023-02-22T05:00:35;94133.63;;;10.29;42.49
7768;BME280;3928;42.626;23.382;2023-02-22T05:03:02;94026.16;;;9.68;43.54
7768;BME280;3928;42.626;23.382;2023-02-22T05:05:30;94134.31;;;10.37;43.06
7768;BME280;3928;42.626;23.382;2023-02-22T05:07:57;94135.94;;;10.42;42.75
7768;BME280;3928;42.626;23.382;2023-02-22T05:10:23;94137.66;;;10.40;42.78
7768;BME280;3928;42.626;23.382;2023-02-22T05:12:50;94129.22;;;10.35;42.76
7768;BME280;3928;42.626;23.382;2023-02-22T05:15:20;94137.75;;;10.37;43.31
7768;BME280;3928;42.626;23.382;2023-02-22T05:17:47;94131.00;;;10.33;42.09
7768;BME280;3928;42.626;23.382;2023-02-22T05:20:16;94126.75;;;10.29;42.44
7768;BME280;3928;42.626;23.382;2023-02-22T05:22:47;94143.03;;;10.28;43.41
7768;BME280;3928;42.626;23.382;2023-02-22T05:25:14;94143.16;;;10.22;43.79
7768;BME280;3928;42.626;23.382;2023-02-22T05:27:41;94140.00;;;10.05;44.26
7768;BME280;3928;42.626;23.382;2023-02-22T05:30:10;94159.03;;;9.91;44.98
7768;BME280;3928;42.626;23.382;2023-02-22T05:32:38;94155.97;;;9.68;45.35
7768;BME280;3928;42.626;23.382;2023-02-22T05:35:06;94164.91;;;9.43;46.99
7768;BME280;3928;42.626;23.382;2023-02-22T05:37:32;94173.59;;;9.32;47.11
7768;BME280;3928;42.626;23.382;2023-02-22T05:40:00;94166.72;;;9.34;47.41
7768;BME280;3928;42.626;23.382;2023-02-22T05:42:27;94167.03;;;9.13;48.14
7768;BME280;3928;42.626;23.382;2023-02-22T05:44:54;94154.44;;;8.98;48.93
7768;BME280;3928;42.626;23.382;2023-02-22T05:47:20;94162.88;;;9.06;49.89
7768;BME280;3928;42.626;23.382;2023-02-22T05:49:49;94172.75;;;9.32;47.74
7768;BME280;3928;42.626;23.382;2023-02-22T05:52:15;94182.75;;;9.49;47.20
7768;BME280;3928;42.626;23.382;2023-02-22T05:54:42;94180.91;;;9.57;47.77
7768;BME280;3928;42.626;23.382;2023-02-22T05:57:09;94160.47;;;9.54;46.54
7768;BME280;3928;42.626;23.382;2023-02-22T05:59:36;94192.53;;;9.79;46.41
7768;BME280;3928;42.626;23.382;2023-02-22T06:02:03;94189.91;;;9.85;46.17
7768;BME280;3928;42.626;23.382;2023-02-22T06:04:29;94178.84;;;9.80;46.31
7768;BME280;3928;42.626;23.382;2023-02-22T06:06:58;94193.09;;;9.98;45.87
7768;BME280;3928;42.626;23.382;2023-02-22T06:09:24;94193.84;;;10.05;45.80
7768;BME280;3928;42.626;23.382;2023-02-22T06:11:51;94185.34;;;10.01;46.24
7768;BME280;3928;42.626;23.382;2023-02-22T06:14:18;94190.25;;;9.62;46.74
7768;BME280;3928;42.626;23.382;2023-02-22T06:16:51;94194.81;;;9.42;47.82
7768;BME280;3928;42.626;23.382;2023-02-22T06:19:18;94193.84;;;9.51;47.67
7768;BME280;3928;42.626;23.382;2023-02-22T06:21:48;94178.34;;;9.60;46.82
7768;BME280;3928;42.626;23.382;2023-02-22T06:24:17;94186.00;;;9.61;47.03
7768;BME280;3928;42.626;23.382;2023-02-22T06:26:44;94190.28;;;9.58;47.49
7768;BME280;3928;42.626;23.382;2023-02-22T06:29:13;94170.13;;;9.36;48.43
7768;BME280;3928;42.626;23.382;2023-02-22T08:21:00;94000.69;;;18.18;31.08
7768;BME280;3928;42.626;23.382;2023-02-22T08:23:27;94145.44;;;19.34;30.21
7768;BME280;3928;42.626;23.382;2023-02-22T08:25:54;93980.59;;;18.54;29.94
7768;BME280;3928;42.626;23.382;2023-02-22T08:28:23;94171.91;;;19.91;29.76
7768;BME280;3928;42.626;23.382;2023-02-22T08:30:50;94174.09;;;19.82;29.13
7768;BME280;3928;42.626;23.382;2023-02-22T08:33:17;94135.94;;;19.81;29.34
7768;BME280;3928;42.626;23.382;2023-02-22T08:35:45;94170.50;;;20.31;28.90
7768;BME280;3928;42.626;23.382;2023-02-22T08:38:19;94156.22;;;20.54;28.94
7768;BME280;3928;42.626;23.382;2023-02-22T08:40:49;94163.84;;;20.87;28.30
7768;BME280;3928;42.626;23.382;2023-02-22T08:43:18;94158.94;;;21.11;27.85
7768;BME280;3928;42.626;23.382;2023-02-22T08:45:45;94163.16;;;21.27;27.39
7768;BME280;3928;42.626;23.382;2023-02-22T08:48:13;94164.00;;;21.56;27.12
7768;BME280;3928;42.626;23.382;2023-02-22T08:50:40;94161.81;;;21.77;27.12
7768;BME280;3928;42.626;23.382;2023-02-22T08:53:09;94146.50;;;21.85;26.56
7768;BME280;3928;42.626;23.382;2023-02-22T08:55:39;94157.13;;;22.11;26.66
7768;BME280;3928;42.626;23.382;2023-02-22T08:58:07;94156.44;;;22.22;26.55
7768;BME280;3928;42.626;23.382;2023-02-22T09:00:35;94163.06;;;22.27;26.67
7768;BME280;3928;42.626;23.382;2023-02-22T09:03:04;94154.00;;;22.45;26.27
7768;BME280;3928;42.626;23.382;2023-02-22T09:05:31;94145.66;;;22.53;26.20
7768;BME280;3928;42.626;23.382;2023-02-22T09:07:58;94148.72;;;22.87;26.33
7768;BME280;3928;42.626;23.382;2023-02-22T09:10:27;94136.47;;;23.13;25.49
7768;BME280;3928;42.626;23.382;2023-02-22T09:12:56;94141.69;;;23.51;25.38
7768;BME280;3928;42.626;23.382;2023-02-22T09:15:25;94147.34;;;23.70;25.39
7768;BME280;3928;42.626;23.382;2023-02-22T09:17:52;94143.81;;;23.95;24.85
7768;BME280;3928;42.626;23.382;2023-02-22T09:20:21;94146.25;;;24.22;24.41
7768;BME280;3928;42.626;23.382;2023-02-22T09:22:48;94138.44;;;24.09;23.92
7768;BME280;3928;42.626;23.382;2023-02-22T09:25:16;94138.91;;;24.27;23.92
7768;BME280;3928;42.626;23.382;2023-02-22T09:27:46;94137.28;;;24.37;23.65
7768;BME280;3928;42.626;23.382;2023-02-22T09:30:20;94141.53;;;24.27;23.72
7768;BME280;3928;42.626;23.382;2023-02-22T09:32:50;94135.63;;;24.00;23.95
7768;BME280;3928;42.626;23.382;2023-02-22T09:35:18;94130.78;;;24.06;23.84
7768;BME280;3928;42.626;23.382;2023-02-22T09:37:44;94131.06;;;23.78;24.19
7768;BME280;3928;42.626;23.382;2023-02-22T09:40:16;94137.75;;;23.95;23.70
7768;BME280;3928;42.626;23.382;2023-02-22T09:42:59;94128.78;;;23.73;23.85
7768;BME280;3928;42.626;23.382;2023-02-22T09:45:31;94123.16;;;23.28;25.11
7768;BME280;3928;42.626;23.382;2023-02-22T09:48:04;94117.78;;;23.55;24.64
7768;BME280;3928;42.626;23.382;2023-02-22T09:50:36;94118.16;;;23.87;24.27
7768;BME280;3928;42.626;23.382;2023-02-22T09:53:11;94121.78;;;23.98;24.33
7768;BME280;3928;42.626;23.382;2023-02-22T09:55:45;94123.97;;;23.67;24.27
7768;BME280;3928;42.626;23.382;2023-02-22T09:58:21;94121.91;;;23.21;24.28
7768;BME280;3928;42.626;23.382;2023-02-22T10:00:56;94117.19;;;23.26;24.65
7768;BME280;3928;42.626;23.382;2023-02-22T10:03:28;94117.03;;;22.64;25.18
7768;BME280;3928;42.626;23.382;2023-02-22T10:05:59;94104.94;;;23.01;25.60
7768;BME280;3928;42.626;23.382;2023-02-22T10:08:31;94105.72;;;23.53;24.86
7768;BME280;3928;42.626;23.382;2023-02-22T10:11:05;94103.50;;;24.09;24.16
7768;BME280;3928;42.626;23.382;2023-02-22T10:13:45;94097.34;;;23.73;23.80
7768;BME280;3928;42.626;23.382;2023-02-22T10:16:22;94094.59;;;23.75;23.39
7768;BME280;3928;42.626;23.382;2023-02-22T10:19:20;94084.81;;;23.40;23.68
7768;BME280;3928;42.626;23.382;2023-02-22T10:22:14;94089.47;;;23.11;25.21
7768;BME280;3928;42.626;23.382;2023-02-22T10:24:52;94084.72;;;23.16;24.51
7768;BME280;3928;42.626;23.382;2023-02-22T10:27:24;94075.19;;;23.28;24.40
7768;BME280;3928;42.626;23.382;2023-02-22T10:29:58;94067.38;;;23.65;24.44
7768;BME280;3928;42.626;23.382;2023-02-22T10:32:33;94073.72;;;24.10;24.52
7768;BME280;3928;42.626;23.382;2023-02-22T10:35:05;94056.03;;;24.60;23.54
7768;BME280;3928;42.626;23.382;2023-02-22T10:37:43;94058.78;;;25.04;23.57
7768;BME280;3928;42.626;23.382;2023-02-22T10:40:14;94050.53;;;25.20;23.29
7768;BME280;3928;42.626;23.382;2023-02-22T10:42:42;94026.75;;;25.55;22.53
7768;BME280;3928;42.626;23.382;2023-02-22T10:45:20;94041.63;;;26.00;22.22
7768;BME280;3928;42.626;23.382;2023-02-22T10:47:49;94022.59;;;26.07;21.75
7768;BME280;3928;42.626;23.382;2023-02-22T10:50:18;94028.00;;;26.38;21.94
7768;BME280;3928;42.626;23.382;2023-02-22T10:52:46;94012.81;;;26.41;21.35
7768;BME280;3928;42.626;23.382;2023-02-22T10:55:14;94020.66;;;26.52;21.94
7768;BME280;3928;42.626;23.382;2023-02-22T10:57:44;94017.22;;;26.83;21.23
7768;BME280;3928;42.626;23.382;2023-02-22T11:00:14;94021.91;;;26.58;21.27
7768;BME280;3928;42.626;23.382;2023-02-22T11:02:51;94013.31;;;26.56;21.29
7768;BME280;3928;42.626;23.382;2023-02-22T11:05:31;94024.53;;;26.79;21.23
7768;BME280;3928;42.626;23.382;2023-02-22T11:08:17;94017.44;;;27.21;21.01
7768;BME280;3928;42.626;23.382;2023-02-22T11:10:49;94008.13;;;27.48;20.89
7768;BME280;3928;42.626;23.382;2023-02-22T11:13:17;94016.53;;;27.91;20.27
7768;BME280;3928;42.626;23.382;2023-02-22T11:15:44;94013.09;;;27.51;20.80
7768;BME280;3928;42.626;23.382;2023-02-22T11:18:24;93999.28;;;27.68;20.23
7768;BME280;3928;42.626;23.382;2023-02-22T11:21:13;94012.09;;;27.82;20.41
7768;BME280;3928;42.626;23.382;2023-02-22T11:23:47;94001.28;;;28.05;19.76
7768;BME280;3928;42.626;23.382;2023-02-22T11:26:17;94003.00;;;28.44;20.00
7768;BME280;3928;42.626;23.382;2023-02-22T11:28:46;94012.16;;;28.60;18.83
7768;BME280;3928;42.626;23.382;2023-02-22T11:31:18;93996.00;;;28.92;19.14
7768;BME280;3928;42.626;23.382;2023-02-22T11:33:50;93993.50;;;28.90;18.08
7768;BME280;3928;42.626;23.382;2023-02-22T11:36:33;93976.31;;;28.57;18.36
7768;BME280;3928;42.626;23.382;2023-02-22T11:39:04;93994.03;;;28.84;18.28
7768;BME280;3928;42.626;23.382;2023-02-22T11:41:35;93985.19;;;28.66;18.40
7768;BME280;3928;42.626;23.382;2023-02-22T11:44:19;93990.16;;;28.88;19.22
7768;BME280;3928;42.626;23.382;2023-02-22T11:46:46;93972.50;;;29.26;18.13
7768;BME280;3928;42.626;23.382;2023-02-22T11:49:15;93975.97;;;29.63;17.78
7768;BME280;3928;42.626;23.382;2023-02-22T11:51:48;93976.59;;;29.93;17.99
7768;BME280;3928;42.626;23.382;2023-02-22T11:54:31;93980.13;;;29.29;18.08
7768;BME280;3928;42.626;23.382;2023-02-22T11:57:14;93975.69;;;28.73;19.13
7768;BME280;3928;42.626;23.382;2023-02-22T11:59:58;93969.00;;;28.88;19.21
7768;BME280;3928;42.626;23.382;2023-02-22T12:02:46;93959.16;;;29.27;18.70
7768;BME280;3928;42.626;23.382;2023-02-22T12:05:27;93962.81;;;29.72;18.33
7768;BME280;3928;42.626;23.382;2023-02-22T12:08:11;93961.13;;;30.16;18.33
7768;BME280;3928;42.626;23.382;2023-02-22T12:10:53;93957.44;;;30.52;17.80
7768;BME280;3928;42.626;23.382;2023-02-22T12:13:34;93963.16;;;30.83;17.59
7768;BME280;3928;42.626;23.382;2023-02-22T12:16:08;93915.81;;;30.63;17.41
7768;BME280;3928;42.626;23.382;2023-02-22T12:18:43;93937.53;;;30.66;17.49
7768;BME280;3928;42.626;23.382;2023-02-22T12:21:14;93938.16;;;30.60;17.19
7768;BME280;3928;42.626;23.382;2023-02-22T12:23:45;93953.69;;;30.02;17.36
7768;BME280;3928;42.626;23.382;2023-02-22T12:26:19;93952.06;;;28.91;17.90
7768;BME280;3928;42.626;23.382;2023-02-22T12:28:54;93930.63;;;27.99;18.78
7768;BME280;3928;42.626;23.382;2023-02-22T12:31:29;93924.34;;;27.61;19.55
7768;BME280;3928;42.626;23.382;2023-02-22T12:34:05;93774.75;;;27.34;19.24
7768;BME280;3928;42.626;23.382;2023-02-22T12:36:52;93937.41;;;27.91;18.68
7768;BME280;3928;42.626;23.382;2023-02-22T12:39:34;93943.31;;;27.55;19.18
7768;BME280;3928;42.626;23.382;2023-02-22T12:42:11;93925.19;;;27.81;19.20
7768;BME280;3928;42.626;23.382;2023-02-22T12:44:42;93925.75;;;28.23;19.13
7768;BME280;3928;42.626;23.382;2023-02-22T12:47:18;93913.56;;;27.74;19.08
7768;BME280;3928;42.626;23.382;2023-02-22T12:49:52;93855.91;;;27.30;19.17
7768;BME280;3928;42.626;23.382;2023-02-22T12:52:35;93892.13;;;27.48;19.26
7768;BME280;3928;42.626;23.382;2023-02-22T12:55:09;93929.78;;;28.27;19.55
7768;BME280;3928;42.626;23.382;2023-02-22T12:57:43;93919.22;;;28.83;18.92
7768;BME280;3928;42.626;23.382;2023-02-22T13:00:16;93914.44;;;29.61;18.30
7768;BME280;3928;42.626;23.382;2023-02-22T13:02:55;93863.16;;;29.72;18.04
7768;BME280;3928;42.626;23.382;2023-02-22T13:05:23;93922.19;;;30.70;17.14
7768;BME280;3928;42.626;23.382;2023-02-22T13:08:01;93912.75;;;31.35;17.00
7768;BME280;3928;42.626;23.382;2023-02-22T13:10:50;93912.44;;;32.13;16.14
7768;BME280;3928;42.626;23.382;2023-02-22T13:13:25;93917.44;;;32.41;16.17
7768;BME280;3928;42.626;23.382;2023-02-22T13:16:00;93901.28;;;31.77;16.19
7768;BME280;3928;42.626;23.382;2023-02-22T13:18:36;93921.94;;;29.84;17.16
7768;BME280;3928;42.626;23.382;2023-02-22T13:21:12;93919.44;;;29.64;17.86
7768;BME280;3928;42.626;23.382;2023-02-22T13:23:48;93915.75;;;29.20;18.26
7768;BME280;3928;42.626;23.382;2023-02-22T13:26:20;93897.75;;;29.06;18.80
7768;BME280;3928;42.626;23.382;2023-02-22T13:28:54;93913.78;;;29.77;18.09
7768;BME280;3928;42.626;23.382;2023-02-22T13:31:35;93904.13;;;30.47;17.12
7768;BME280;3928;42.626;23.382;2023-02-22T13:34:15;93901.63;;;30.98;17.16
7768;BME280;3928;42.626;23.382;2023-02-22T13:36:58;93902.22;;;31.52;16.51
7768;BME280;3928;42.626;23.382;2023-02-22T13:39:50;93910.78;;;32.12;15.85
7768;BME280;3928;42.626;23.382;2023-02-22T13:42:48;93906.13;;;32.55;15.74
7768;BME280;3928;42.626;23.382;2023-02-22T13:48:36;93906.00;;;32.48;15.60
7768;BME280;3928;42.626;23.382;2023-02-22T13:51:22;93901.97;;;32.20;16.05
7768;BME280;3928;42.626;23.382;2023-02-22T13:54:00;93891.53;;;32.51;15.48
7768;BME280;3928;42.626;23.382;2023-02-22T13:56:29;93847.53;;;32.48;14.88
7768;BME280;3928;42.626;23.382;2023-02-22T13:58:59;93908.22;;;33.00;14.64
7768;BME280;3928;42.626;23.382;2023-02-22T14:01:38;93902.81;;;33.25;14.82
7768;BME280;3928;42.626;23.382;2023-02-22T14:04:35;93901.31;;;33.30;14.96
7768;BME280;3928;42.626;23.382;2023-02-22T14:07:04;93902.88;;;33.17;14.71
7768;BME280;3928;42.626;23.382;2023-02-22T14:09:53;93899.97;;;32.87;15.19
7768;BME280;3928;42.626;23.382;2023-02-22T14:12:49;93905.22;;;33.03;15.30
7768;BME280;3928;42.626;23.382;2023-02-22T14:15:18;93895.66;;;33.25;15.20
7768;BME280;3928;42.626;23.382;2023-02-22T14:17:47;93905.84;;;33.22;15.34
7768;BME280;3928;42.626;23.382;2023-02-22T14:20:33;93890.69;;;31.77;15.91
7768;BME280;3928;42.626;23.382;2023-02-22T14:23:27;93898.34;;;30.52;16.94
7768;BME280;3928;42.626;23.382;2023-02-22T14:25:56;93896.09;;;30.57;17.63
7768;BME280;3928;42.626;23.382;2023-02-22T14:28:51;93901.94;;;30.95;16.99
7768;BME280;3928;42.626;23.382;2023-02-22T14:31:20;93900.16;;;31.29;16.62
7768;BME280;3928;42.626;23.382;2023-02-22T14:34:03;93901.22;;;31.61;16.28
7768;BME280;3928;42.626;23.382;2023-02-22T14:36:41;93900.81;;;31.90;16.44
7768;BME280;3928;42.626;23.382;2023-02-22T14:39:18;93900.66;;;31.99;16.12
7768;BME280;3928;42.626;23.382;2023-02-22T14:41:50;93891.38;;;32.12;15.94
7768;BME280;3928;42.626;23.382;2023-02-22T14:44:24;93899.31;;;31.79;16.27
7768;BME280;3928;42.626;23.382;2023-02-22T14:46:53;93891.94;;;31.57;16.75
7768;BME280;3928;42.626;23.382;2023-02-22T14:49:24;93904.16;;;31.41;16.59
7768;BME280;3928;42.626;23.382;2023-02-22T14:51:55;93887.69;;;31.22;17.20
7768;BME280;3928;42.626;23.382;2023-02-22T14:54:27;93873.84;;;30.76;16.82
7768;BME280;3928;42.626;23.382;2023-02-22T14:57:03;93882.72;;;30.41;17.47
7768;BME280;3928;42.626;23.382;2023-02-22T14:59:58;93885.59;;;29.86;17.59
7768;BME280;3928;42.626;23.382;2023-02-22T15:02:37;93884.09;;;29.38;17.93
7768;BME280;3928;42.626;23.382;2023-02-22T15:05:06;93887.13;;;28.88;18.57
7768;BME280;3928;42.626;23.382;2023-02-22T15:07:33;93893.78;;;28.45;18.41
7768;BME280;3928;42.626;23.382;2023-02-22T15:10:15;93890.38;;;27.87;19.29
7768;BME280;3928;42.626;23.382;2023-02-22T15:12:51;93898.50;;;27.45;20.37
7768;BME280;3928;42.626;23.382;2023-02-22T15:15:23;93892.19;;;27.07;20.33
7768;BME280;3928;42.626;23.382;2023-02-22T15:17:53;93879.41;;;26.72;20.30
7768;BME280;3928;42.626;23.382;2023-02-22T15:20:22;93866.16;;;26.02;20.98
7768;BME280;3928;42.626;23.382;2023-02-22T15:22:50;93887.34;;;25.36;21.71
7768;BME280;3928;42.626;23.382;2023-02-22T15:25:25;93876.91;;;24.58;22.75
7768;BME280;3928;42.626;23.382;2023-02-22T15:27:52;93896.56;;;24.30;22.95
7768;BME280;3928;42.626;23.382;2023-02-22T15:30:28;93883.22;;;23.86;23.14
7768;BME280;3928;42.626;23.382;2023-02-22T15:33:09;93893.09;;;23.72;23.21
7768;BME280;3928;42.626;23.382;2023-02-22T15:35:37;93881.09;;;23.56;23.29
7768;BME280;3928;42.626;23.382;2023-02-22T15:38:05;93881.13;;;23.44;23.55